sensor_id;sensor_type;location;lat;lon;timestamp;P1;durP1;ratioP1;P2;durP2;ratioP2
583;SDS011;27024;54.068;12.116;2022-12-18T00:01:23;45.75;;;11.20;;
583;SDS011;27024;54.068;12.116;2022-12-18T00:03:55;40.95;;;11.43;;
583;SDS011;27024;54.068;12.116;2022-12-18T00:06:23;37.92;;;10.43;;
583;SDS011;27024;54.068;12.116;2022-12-18T00:08:51;39.85;;;9.32;;
583;SDS011;27024;54.068;12.116;2022-12-18T00:11:20;46.20;;;11.98;;
583;SDS011;27024;54.068;12.116;2022-12-18T00:13:48;40.83;;;10.65;;
583;SDS011;27024;54.068;12.116;2022-12-18T00:16:17;43.30;;;11.68;;
583;SDS011;27024;54.068;12.116;2022-12-18T00:18:47;45.53;;;12.07;;
583;SDS011;27024;54.068;12.116;2022-12-18T00:23:47;33.28;;;9.57;;
583;SDS011;27024;54.068;12.116;2022-12-18T00:26:16;41.38;;;11.07;;
583;SDS011;27024;54.068;12.116;2022-12-18T00:28:45;46.17;;;11.57;;
583;SDS011;27024;54.068;12.116;2022-12-18T00:31:17;47.55;;;13.32;;
583;SDS011;27024;54.068;12.116;2022-12-18T00:33:46;44.60;;;12.57;;
583;SDS011;27024;54.068;12.116;2022-12-18T00:36:21;41.33;;;11.48;;
583;SDS011;27024;54.068;12.116;2022-12-18T00:38:50;43.90;;;11.38;;
583;SDS011;27024;54.068;12.116;2022-12-18T00:41:17;43.47;;;13.38;;
583;SDS011;27024;54.068;12.116;2022-12-18T00:44:05;45.22;;;12.27;;
583;SDS011;27024;54.068;12.116;2022-12-18T00:46:33;38.15;;;12.32;;
583;SDS011;27024;54.068;12.116;2022-12-18T00:49:00;46.40;;;11.63;;
583;SDS011;27024;54.068;12.116;2022-12-18T00:51:27;43.58;;;12.35;;
583;SDS011;27024;54.068;12.116;2022-12-18T00:53:54;38.67;;;11.70;;
583;SDS011;27024;54.068;12.116;2022-12-18T00:56:21;43.45;;;12.25;;
583;SDS011;27024;54.068;12.116;2022-12-18T00:58:48;38.80;;;12.00;;
583;SDS011;27024;54.068;12.116;2022-12-18T01:01:15;39.83;;;11.25;;
583;SDS011;27024;54.068;12.116;2022-12-18T01:03:43;41.75;;;11.45;;
583;SDS011;27024;54.068;12.116;2022-12-18T01:06:13;33.63;;;9.45;;
583;SDS011;27024;54.068;12.116;2022-12-18T01:08:43;35.55;;;11.85;;
583;SDS011;27024;54.068;12.116;2022-12-18T01:11:15;36.63;;;11.23;;
583;SDS011;27024;54.068;12.116;2022-12-18T01:13:43;43.03;;;12.48;;
583;SDS011;27024;54.068;12.116;2022-12-18T01:16:14;42.10;;;11.15;;
583;SDS011;27024;54.068;12.116;2022-12-18T01:18:42;42.92;;;12.32;;
583;SDS011;27024;54.068;12.116;2022-12-18T01:21:10;41.05;;;9.95;;
583;SDS011;27024;54.068;12.116;2022-12-18T01:23:38;34.90;;;10.73;;
583;SDS011;27024;54.068;12.116;2022-12-18T01:26:10;37.95;;;10.20;;
583;SDS011;27024;54.068;12.116;2022-12-18T01:28:40;43.10;;;12.57;;
583;SDS011;27024;54.068;12.116;2022-12-18T01:31:11;41.97;;;10.57;;
583;SDS011;27024;54.068;12.116;2022-12-18T01:33:49;38.35;;;11.23;;
583;SDS011;27024;54.068;12.116;2022-12-18T01:36:18;45.08;;;11.45;;
583;SDS011;27024;54.068;12.116;2022-12-18T01:38:48;41.30;;;11.98;;
583;SDS011;27024;54.068;12.116;2022-12-18T01:41:16;40.60;;;11.38;;
583;SDS011;27024;54.068;12.116;2022-12-18T01:43:56;39.95;;;11.60;;
583;SDS011;27024;54.068;12.116;2022-12-18T01:46:24;39.92;;;12.95;;
583;SDS011;27024;54.068;12.116;2022-12-18T01:48:59;40.72;;;11.68;;
583;SDS011;27024;54.068;12.116;2022-12-18T01:51:27;44.03;;;13.10;;
583;SDS011;27024;54.068;12.116;2022-12-18T01:53:57;43.38;;;11.55;;
583;SDS011;27024;54.068;12.116;2022-12-18T01:56:24;37.63;;;10.43;;
583;SDS011;27024;54.068;12.116;2022-12-18T01:59:02;41.88;;;11.98;;
583;SDS011;27024;54.068;12.116;2022-12-18T02:01:31;39.05;;;10.35;;
583;SDS011;27024;54.068;12.116;2022-12-18T02:04:42;35.67;;;11.45;;
583;SDS011;27024;54.068;12.116;2022-12-18T02:06:54;36.55;;;11.10;;
583;SDS011;27024;54.068;12.116;2022-12-18T02:12:21;31.95;;;10.93;;
583;SDS011;27024;54.068;12.116;2022-12-18T02:15:13;34.67;;;11.13;;
583;SDS011;27024;54.068;12.116;2022-12-18T02:17:50;38.00;;;9.98;;
583;SDS011;27024;54.068;12.116;2022-12-18T02:23:10;36.53;;;10.43;;
583;SDS011;27024;54.068;12.116;2022-12-18T02:29:02;37.53;;;9.95;;
583;SDS011;27024;54.068;12.116;2022-12-18T02:31:54;42.97;;;11.20;;
583;SDS011;27024;54.068;12.116;2022-12-18T02:34:29;29.85;;;9.35;;
583;SDS011;27024;54.068;12.116;2022-12-18T02:36:59;32.05;;;10.45;;
583;SDS011;27024;54.068;12.116;2022-12-18T02:39:28;36.65;;;11.38;;
583;SDS011;27024;54.068;12.116;2022-12-18T02:41:57;41.20;;;11.55;;
583;SDS011;27024;54.068;12.116;2022-12-18T02:44:24;33.30;;;10.63;;
583;SDS011;27024;54.068;12.116;2022-12-18T02:46:52;37.10;;;11.15;;
583;SDS011;27024;54.068;12.116;2022-12-18T02:52:21;29.08;;;8.63;;
583;SDS011;27024;54.068;12.116;2022-12-18T03:00:28;28.95;;;9.02;;
583;SDS011;27024;54.068;12.116;2022-12-18T03:05:57;29.63;;;8.57;;
583;SDS011;27024;54.068;12.116;2022-12-18T03:08:41;31.13;;;9.90;;
583;SDS011;27024;54.068;12.116;2022-12-18T03:11:12;32.45;;;10.50;;
583;SDS011;27024;54.068;12.116;2022-12-18T03:16:09;26.52;;;8.80;;
583;SDS011;27024;54.068;12.116;2022-12-18T03:18:43;30.85;;;9.75;;
583;SDS011;27024;54.068;12.116;2022-12-18T03:21:23;27.15;;;8.55;;
583;SDS011;27024;54.068;12.116;2022-12-18T03:23:54;23.20;;;8.43;;
583;SDS011;27024;54.068;12.116;2022-12-18T03:26:23;28.35;;;9.15;;
583;SDS011;27024;54.068;12.116;2022-12-18T03:29:27;30.67;;;9.43;;
583;SDS011;27024;54.068;12.116;2022-12-18T03:31:49;30.27;;;9.38;;
583;SDS011;27024;54.068;12.116;2022-12-18T03:34:25;29.35;;;9.13;;
583;SDS011;27024;54.068;12.116;2022-12-18T03:36:57;29.27;;;9.85;;
583;SDS011;27024;54.068;12.116;2022-12-18T03:39:24;28.70;;;8.98;;
583;SDS011;27024;54.068;12.116;2022-12-18T03:44:34;27.10;;;8.20;;
583;SDS011;27024;54.068;12.116;2022-12-18T03:47:07;30.65;;;9.38;;
583;SDS011;27024;54.068;12.116;2022-12-18T03:52:18;30.35;;;8.32;;
583;SDS011;27024;54.068;12.116;2022-12-18T03:54:50;31.23;;;9.32;;
583;SDS011;27024;54.068;12.116;2022-12-18T03:57:19;28.70;;;8.05;;
583;SDS011;27024;54.068;12.116;2022-12-18T03:59:49;27.10;;;8.25;;
583;SDS011;27024;54.068;12.116;2022-12-18T04:02:20;26.45;;;8.02;;
583;SDS011;27024;54.068;12.116;2022-12-18T04:04:51;28.92;;;8.55;;
583;SDS011;27024;54.068;12.116;2022-12-18T04:07:20;29.23;;;8.32;;
583;SDS011;27024;54.068;12.116;2022-12-18T04:09:48;29.58;;;8.63;;
583;SDS011;27024;54.068;12.116;2022-12-18T04:12:19;27.40;;;9.10;;
583;SDS011;27024;54.068;12.116;2022-12-18T04:14:46;29.70;;;9.52;;
583;SDS011;27024;54.068;12.116;2022-12-18T04:17:13;24.42;;;7.53;;
583;SDS011;27024;54.068;12.116;2022-12-18T04:19:39;25.23;;;7.75;;
583;SDS011;27024;54.068;12.116;2022-12-18T04:22:08;27.98;;;7.90;;
583;SDS011;27024;54.068;12.116;2022-12-18T04:24:36;28.80;;;9.75;;
583;SDS011;27024;54.068;12.116;2022-12-18T04:27:04;26.73;;;7.28;;
583;SDS011;27024;54.068;12.116;2022-12-18T04:29:31;26.25;;;9.38;;
583;SDS011;27024;54.068;12.116;2022-12-18T04:31:58;30.80;;;8.75;;
583;SDS011;27024;54.068;12.116;2022-12-18T04:34:26;27.23;;;8.32;;
583;SDS011;27024;54.068;12.116;2022-12-18T04:36:52;30.50;;;8.57;;
583;SDS011;27024;54.068;12.116;2022-12-18T04:39:19;30.65;;;8.60;;
583;SDS011;27024;54.068;12.116;2022-12-18T04:41:46;29.38;;;9.15;;
583;SDS011;27024;54.068;12.116;2022-12-18T04:44:13;28.98;;;7.43;;
583;SDS011;27024;54.068;12.116;2022-12-18T04:46:40;25.08;;;8.38;;
583;SDS011;27024;54.068;12.116;2022-12-18T04:49:07;25.63;;;7.00;;
583;SDS011;27024;54.068;12.116;2022-12-18T04:51:33;24.75;;;8.02;;
583;SDS011;27024;54.068;12.116;2022-12-18T04:54:00;28.13;;;8.20;;
583;SDS011;27024;54.068;12.116;2022-12-18T04:56:27;27.52;;;8.00;;
583;SDS011;27024;54.068;12.116;2022-12-18T04:58:54;25.75;;;8.23;;
583;SDS011;27024;54.068;12.116;2022-12-18T05:01:20;27.55;;;8.07;;
583;SDS011;27024;54.068;12.116;2022-12-18T05:03:47;23.02;;;7.65;;
583;SDS011;27024;54.068;12.116;2022-12-18T05:06:14;24.52;;;7.57;;
583;SDS011;27024;54.068;12.116;2022-12-18T05:08:41;23.45;;;7.40;;
583;SDS011;27024;54.068;12.116;2022-12-18T05:11:08;24.85;;;8.10;;
583;SDS011;27024;54.068;12.116;2022-12-18T05:13:37;24.92;;;7.55;;
583;SDS011;27024;54.068;12.116;2022-12-18T05:16:05;24.73;;;7.82;;
583;SDS011;27024;54.068;12.116;2022-12-18T05:18:32;28.95;;;8.45;;
583;SDS011;27024;54.068;12.116;2022-12-18T05:20:59;23.40;;;7.75;;
583;SDS011;27024;54.068;12.116;2022-12-18T05:23:26;24.90;;;7.95;;
583;SDS011;27024;54.068;12.116;2022-12-18T05:25:54;23.23;;;6.65;;
583;SDS011;27024;54.068;12.116;2022-12-18T05:28:21;25.10;;;7.50;;
583;SDS011;27024;54.068;12.116;2022-12-18T05:30:50;23.23;;;7.47;;
583;SDS011;27024;54.068;12.116;2022-12-18T05:33:18;24.50;;;6.97;;
583;SDS011;27024;54.068;12.116;2022-12-18T05:36:05;22.23;;;6.75;;
583;SDS011;27024;54.068;12.116;2022-12-18T05:38:34;25.38;;;7.75;;
583;SDS011;27024;54.068;12.116;2022-12-18T05:41:04;21.05;;;7.28;;
583;SDS011;27024;54.068;12.116;2022-12-18T05:43:31;23.38;;;6.75;;
583;SDS011;27024;54.068;12.116;2022-12-18T05:46:08;24.08;;;8.25;;
583;SDS011;27024;54.068;12.116;2022-12-18T05:48:38;22.27;;;6.72;;
583;SDS011;27024;54.068;12.116;2022-12-18T05:51:06;24.20;;;6.70;;
583;SDS011;27024;54.068;12.116;2022-12-18T05:53:35;22.27;;;7.35;;
583;SDS011;27024;54.068;12.116;2022-12-18T05:56:04;21.90;;;7.03;;
583;SDS011;27024;54.068;12.116;2022-12-18T05:58:32;27.77;;;7.82;;
583;SDS011;27024;54.068;12.116;2022-12-18T06:01:06;22.33;;;7.05;;
583;SDS011;27024;54.068;12.116;2022-12-18T06:06:19;23.65;;;7.43;;
583;SDS011;27024;54.068;12.116;2022-12-18T06:08:49;21.85;;;7.72;;
583;SDS011;27024;54.068;12.116;2022-12-18T06:11:17;25.05;;;9.43;;
583;SDS011;27024;54.068;12.116;2022-12-18T06:13:50;20.80;;;6.72;;
583;SDS011;27024;54.068;12.116;2022-12-18T06:16:24;23.50;;;7.57;;
583;SDS011;27024;54.068;12.116;2022-12-18T06:18:51;22.73;;;7.25;;
583;SDS011;27024;54.068;12.116;2022-12-18T06:21:18;23.15;;;7.25;;
583;SDS011;27024;54.068;12.116;2022-12-18T06:23:44;25.30;;;6.97;;
583;SDS011;27024;54.068;12.116;2022-12-18T06:26:11;26.35;;;8.18;;
583;SDS011;27024;54.068;12.116;2022-12-18T06:28:39;18.23;;;5.85;;
583;SDS011;27024;54.068;12.116;2022-12-18T06:31:07;22.65;;;7.38;;
583;SDS011;27024;54.068;12.116;2022-12-18T06:33:35;23.58;;;6.65;;
583;SDS011;27024;54.068;12.116;2022-12-18T06:36:04;21.15;;;6.70;;
583;SDS011;27024;54.068;12.116;2022-12-18T06:38:33;19.80;;;6.85;;
583;SDS011;27024;54.068;12.116;2022-12-18T06:41:06;20.08;;;7.03;;
583;SDS011;27024;54.068;12.116;2022-12-18T06:43:37;19.20;;;6.43;;
583;SDS011;27024;54.068;12.116;2022-12-18T06:46:05;24.58;;;7.78;;
583;SDS011;27024;54.068;12.116;2022-12-18T06:48:32;21.95;;;6.50;;
583;SDS011;27024;54.068;12.116;2022-12-18T06:50:59;26.15;;;7.07;;
583;SDS011;27024;54.068;12.116;2022-12-18T06:53:26;24.50;;;7.28;;
583;SDS011;27024;54.068;12.116;2022-12-18T06:56:04;21.13;;;6.35;;
583;SDS011;27024;54.068;12.116;2022-12-18T06:58:36;17.38;;;5.93;;
583;SDS011;27024;54.068;12.116;2022-12-18T07:01:08;21.58;;;6.72;;
583;SDS011;27024;54.068;12.116;2022-12-18T07:03:36;25.30;;;7.63;;
583;SDS011;27024;54.068;12.116;2022-12-18T07:06:05;21.55;;;6.53;;
583;SDS011;27024;54.068;12.116;2022-12-18T07:08:32;25.08;;;7.95;;
583;SDS011;27024;54.068;12.116;2022-12-18T07:11:02;21.05;;;6.63;;
583;SDS011;27024;54.068;12.116;2022-12-18T07:13:29;20.48;;;6.53;;
583;SDS011;27024;54.068;12.116;2022-12-18T07:16:03;26.15;;;7.35;;
583;SDS011;27024;54.068;12.116;2022-12-18T07:18:44;21.25;;;6.75;;
583;SDS011;27024;54.068;12.116;2022-12-18T07:21:14;25.13;;;7.00;;
583;SDS011;27024;54.068;12.116;2022-12-18T07:23:42;18.58;;;6.15;;
583;SDS011;27024;54.068;12.116;2022-12-18T07:26:13;18.80;;;6.35;;
583;SDS011;27024;54.068;12.116;2022-12-18T07:28:41;22.95;;;6.13;;
583;SDS011;27024;54.068;12.116;2022-12-18T07:31:13;20.00;;;6.70;;
583;SDS011;27024;54.068;12.116;2022-12-18T07:33:46;24.00;;;7.13;;
583;SDS011;27024;54.068;12.116;2022-12-18T07:36:14;20.17;;;6.32;;
583;SDS011;27024;54.068;12.116;2022-12-18T07:38:41;18.90;;;6.03;;
583;SDS011;27024;54.068;12.116;2022-12-18T07:41:11;19.50;;;6.43;;
583;SDS011;27024;54.068;12.116;2022-12-18T07:43:40;24.55;;;6.40;;
583;SDS011;27024;54.068;12.116;2022-12-18T07:46:08;20.58;;;6.07;;
583;SDS011;27024;54.068;12.116;2022-12-18T07:48:38;24.85;;;7.13;;
583;SDS011;27024;54.068;12.116;2022-12-18T07:51:05;23.73;;;7.00;;
583;SDS011;27024;54.068;12.116;2022-12-18T07:53:33;24.00;;;7.65;;
583;SDS011;27024;54.068;12.116;2022-12-18T07:56:03;24.13;;;6.43;;
583;SDS011;27024;54.068;12.116;2022-12-18T07:58:52;21.83;;;6.60;;
583;SDS011;27024;54.068;12.116;2022-12-18T08:01:19;22.17;;;6.43;;
583;SDS011;27024;54.068;12.116;2022-12-18T08:03:47;22.23;;;7.15;;
583;SDS011;27024;54.068;12.116;2022-12-18T08:06:15;27.00;;;7.22;;
583;SDS011;27024;54.068;12.116;2022-12-18T08:08:41;18.70;;;6.57;;
583;SDS011;27024;54.068;12.116;2022-12-18T08:11:08;24.65;;;7.68;;
583;SDS011;27024;54.068;12.116;2022-12-18T08:13:35;22.85;;;6.82;;
583;SDS011;27024;54.068;12.116;2022-12-18T08:16:06;21.88;;;6.70;;
583;SDS011;27024;54.068;12.116;2022-12-18T08:18:34;22.52;;;7.30;;
583;SDS011;27024;54.068;12.116;2022-12-18T08:23:36;22.10;;;7.97;;
583;SDS011;27024;54.068;12.116;2022-12-18T08:26:08;24.33;;;7.18;;
583;SDS011;27024;54.068;12.116;2022-12-18T08:28:36;28.35;;;7.35;;
583;SDS011;27024;54.068;12.116;2022-12-18T08:31:03;27.67;;;7.63;;
583;SDS011;27024;54.068;12.116;2022-12-18T08:33:31;24.25;;;7.50;;
583;SDS011;27024;54.068;12.116;2022-12-18T08:35:59;27.60;;;7.88;;
583;SDS011;27024;54.068;12.116;2022-12-18T08:38:27;23.25;;;7.80;;
583;SDS011;27024;54.068;12.116;2022-12-18T08:40:57;25.85;;;8.05;;
583;SDS011;27024;54.068;12.116;2022-12-18T08:43:35;28.88;;;7.72;;
583;SDS011;27024;54.068;12.116;2022-12-18T08:46:21;27.23;;;7.22;;
583;SDS011;27024;54.068;12.116;2022-12-18T08:48:49;20.40;;;7.20;;
583;SDS011;27024;54.068;12.116;2022-12-18T08:51:17;23.77;;;7.45;;
583;SDS011;27024;54.068;12.116;2022-12-18T08:53:44;26.48;;;8.40;;
583;SDS011;27024;54.068;12.116;2022-12-18T08:56:11;25.23;;;8.27;;
583;SDS011;27024;54.068;12.116;2022-12-18T08:58:38;23.55;;;7.10;;
583;SDS011;27024;54.068;12.116;2022-12-18T09:01:06;22.23;;;7.63;;
583;SDS011;27024;54.068;12.116;2022-12-18T09:03:37;28.63;;;8.07;;
583;SDS011;27024;54.068;12.116;2022-12-18T09:06:05;22.13;;;7.93;;
583;SDS011;27024;54.068;12.116;2022-12-18T09:08:33;24.75;;;8.20;;
583;SDS011;27024;54.068;12.116;2022-12-18T09:11:00;27.00;;;7.80;;
583;SDS011;27024;54.068;12.116;2022-12-18T09:13:27;23.77;;;7.00;;
583;SDS011;27024;54.068;12.116;2022-12-18T09:15:54;24.60;;;8.27;;
583;SDS011;27024;54.068;12.116;2022-12-18T09:18:22;34.33;;;9.77;;
583;SDS011;27024;54.068;12.116;2022-12-18T09:20:50;30.65;;;8.85;;
583;SDS011;27024;54.068;12.116;2022-12-18T09:23:18;24.88;;;8.10;;
583;SDS011;27024;54.068;12.116;2022-12-18T09:25:46;28.15;;;9.10;;
583;SDS011;27024;54.068;12.116;2022-12-18T09:28:14;28.75;;;9.25;;
583;SDS011;27024;54.068;12.116;2022-12-18T09:30:43;25.10;;;8.48;;
583;SDS011;27024;54.068;12.116;2022-12-18T09:33:15;25.88;;;8.63;;
583;SDS011;27024;54.068;12.116;2022-12-18T09:35:43;25.10;;;9.07;;
583;SDS011;27024;54.068;12.116;2022-12-18T09:38:12;24.23;;;7.78;;
583;SDS011;27024;54.068;12.116;2022-12-18T09:40:59;24.17;;;8.55;;
583;SDS011;27024;54.068;12.116;2022-12-18T09:46:11;28.00;;;9.35;;
583;SDS011;27024;54.068;12.116;2022-12-18T09:49:00;28.73;;;8.45;;
583;SDS011;27024;54.068;12.116;2022-12-18T09:51:33;27.98;;;8.93;;
583;SDS011;27024;54.068;12.116;2022-12-18T09:54:06;28.88;;;8.60;;
583;SDS011;27024;54.068;12.116;2022-12-18T09:56:40;25.80;;;9.15;;
583;SDS011;27024;54.068;12.116;2022-12-18T09:59:44;26.05;;;9.02;;
583;SDS011;27024;54.068;12.116;2022-12-18T10:02:12;26.42;;;9.13;;
583;SDS011;27024;54.068;12.116;2022-12-18T10:22:57;25.20;;;7.93;;
583;SDS011;27024;54.068;12.116;2022-12-18T10:28:27;26.83;;;8.95;;
583;SDS011;27024;54.068;12.116;2022-12-18T10:30:56;25.60;;;8.07;;
583;SDS011;27024;54.068;12.116;2022-12-18T10:33:23;26.92;;;8.98;;
583;SDS011;27024;54.068;12.116;2022-12-18T10:35:54;25.42;;;9.00;;
583;SDS011;27024;54.068;12.116;2022-12-18T10:38:22;29.20;;;9.98;;
583;SDS011;27024;54.068;12.116;2022-12-18T10:41:04;30.85;;;9.50;;
583;SDS011;27024;54.068;12.116;2022-12-18T10:43:35;28.73;;;8.95;;
583;SDS011;27024;54.068;12.116;2022-12-18T10:51:07;27.23;;;9.02;;
583;SDS011;27024;54.068;12.116;2022-12-18T10:53:38;31.42;;;9.48;;
583;SDS011;27024;54.068;12.116;2022-12-18T10:56:08;27.52;;;9.48;;
583;SDS011;27024;54.068;12.116;2022-12-18T10:58:35;31.08;;;10.30;;
583;SDS011;27024;54.068;12.116;2022-12-18T11:08:41;25.65;;;8.32;;
583;SDS011;27024;54.068;12.116;2022-12-18T11:11:22;31.77;;;9.65;;
583;SDS011;27024;54.068;12.116;2022-12-18T11:13:52;28.50;;;10.38;;
583;SDS011;27024;54.068;12.116;2022-12-18T11:16:50;26.35;;;9.70;;
583;SDS011;27024;54.068;12.116;2022-12-18T11:19:39;27.30;;;9.35;;
583;SDS011;27024;54.068;12.116;2022-12-18T11:25:16;30.27;;;9.68;;
583;SDS011;27024;54.068;12.116;2022-12-18T11:28:01;27.63;;;9.30;;
583;SDS011;27024;54.068;12.116;2022-12-18T11:30:31;33.95;;;10.40;;
583;SDS011;27024;54.068;12.116;2022-12-18T11:33:11;28.48;;;9.75;;
583;SDS011;27024;54.068;12.116;2022-12-18T11:35:47;29.10;;;10.50;;
583;SDS011;27024;54.068;12.116;2022-12-18T11:38:22;30.10;;;9.82;;
583;SDS011;27024;54.068;12.116;2022-12-18T11:40:56;27.23;;;8.73;;
583;SDS011;27024;54.068;12.116;2022-12-18T11:43:53;31.55;;;9.18;;
583;SDS011;27024;54.068;12.116;2022-12-18T11:49:07;30.73;;;10.50;;
583;SDS011;27024;54.068;12.116;2022-12-18T11:52:00;29.80;;;9.13;;
583;SDS011;27024;54.068;12.116;2022-12-18T11:54:36;24.02;;;8.63;;
583;SDS011;27024;54.068;12.116;2022-12-18T12:08:22;29.85;;;8.90;;
583;SDS011;27024;54.068;12.116;2022-12-18T12:11:15;26.67;;;8.73;;
583;SDS011;27024;54.068;12.116;2022-12-18T12:16:50;26.38;;;8.75;;
583;SDS011;27024;54.068;12.116;2022-12-18T12:26:11;26.10;;;8.23;;
583;SDS011;27024;54.068;12.116;2022-12-18T12:40:38;25.40;;;8.93;;
583;SDS011;27024;54.068;12.116;2022-12-18T12:43:27;29.77;;;9.15;;
583;SDS011;27024;54.068;12.116;2022-12-18T12:46:05;25.20;;;8.48;;
583;SDS011;27024;54.068;12.116;2022-12-18T12:51:18;30.20;;;9.93;;
583;SDS011;27024;54.068;12.116;2022-12-18T12:53:47;27.23;;;8.45;;
583;SDS011;27024;54.068;12.116;2022-12-18T12:56:16;29.83;;;10.90;;
583;SDS011;27024;54.068;12.116;2022-12-18T13:04:16;29.20;;;10.27;;
583;SDS011;27024;54.068;12.116;2022-12-18T13:06:50;32.38;;;10.02;;
583;SDS011;27024;54.068;12.116;2022-12-18T13:09:31;28.73;;;9.05;;
583;SDS011;27024;54.068;12.116;2022-12-18T13:12:04;28.92;;;9.07;;
583;SDS011;27024;54.068;12.116;2022-12-18T13:15:11;25.77;;;9.45;;
583;SDS011;27024;54.068;12.116;2022-12-18T13:17:45;27.35;;;8.65;;
583;SDS011;27024;54.068;12.116;2022-12-18T13:20:13;29.48;;;8.88;;
583;SDS011;27024;54.068;12.116;2022-12-18T13:22:43;28.33;;;9.73;;
583;SDS011;27024;54.068;12.116;2022-12-18T13:41:34;28.23;;;9.60;;
583;SDS011;27024;54.068;12.116;2022-12-18T13:47:25;30.35;;;9.38;;
583;SDS011;27024;54.068;12.116;2022-12-18T13:50:00;30.15;;;9.18;;
583;SDS011;27024;54.068;12.116;2022-12-18T13:52:37;26.25;;;8.43;;
583;SDS011;27024;54.068;12.116;2022-12-18T13:55:07;29.92;;;10.15;;
583;SDS011;27024;54.068;12.116;2022-12-18T13:57:43;33.38;;;9.98;;
583;SDS011;27024;54.068;12.116;2022-12-18T14:02:51;29.67;;;9.18;;
583;SDS011;27024;54.068;12.116;2022-12-18T14:05:22;29.05;;;10.27;;
583;SDS011;27024;54.068;12.116;2022-12-18T14:07:50;27.90;;;9.38;;
583;SDS011;27024;54.068;12.116;2022-12-18T14:10:20;33.53;;;10.60;;
583;SDS011;27024;54.068;12.116;2022-12-18T14:13:08;35.33;;;10.50;;
583;SDS011;27024;54.068;12.116;2022-12-18T14:15:45;33.17;;;10.43;;
583;SDS011;27024;54.068;12.116;2022-12-18T14:20:47;32.85;;;9.60;;
583;SDS011;27024;54.068;12.116;2022-12-18T14:26:17;33.95;;;9.95;;
583;SDS011;27024;54.068;12.116;2022-12-18T14:28:51;31.67;;;10.65;;
583;SDS011;27024;54.068;12.116;2022-12-18T14:31:21;36.58;;;10.90;;
583;SDS011;27024;54.068;12.116;2022-12-18T14:33:50;33.65;;;10.77;;
583;SDS011;27024;54.068;12.116;2022-12-18T14:36:25;31.92;;;11.10;;
583;SDS011;27024;54.068;12.116;2022-12-18T14:38:54;35.67;;;11.00;;
583;SDS011;27024;54.068;12.116;2022-12-18T14:41:23;32.90;;;9.48;;
583;SDS011;27024;54.068;12.116;2022-12-18T14:43:52;36.83;;;11.40;;
583;SDS011;27024;54.068;12.116;2022-12-18T14:49:02;38.85;;;10.90;;
583;SDS011;27024;54.068;12.116;2022-12-18T14:51:48;36.05;;;11.18;;
583;SDS011;27024;54.068;12.116;2022-12-18T14:54:18;34.53;;;10.95;;
583;SDS011;27024;54.068;12.116;2022-12-18T14:56:47;31.98;;;11.88;;
583;SDS011;27024;54.068;12.116;2022-12-18T14:59:21;35.95;;;11.32;;
583;SDS011;27024;54.068;12.116;2022-12-18T15:01:58;38.20;;;11.68;;
583;SDS011;27024;54.068;12.116;2022-12-18T15:04:44;36.00;;;11.75;;
583;SDS011;27024;54.068;12.116;2022-12-18T15:07:16;33.70;;;10.55;;
583;SDS011;27024;54.068;12.116;2022-12-18T15:12:35;39.17;;;11.23;;
583;SDS011;27024;54.068;12.116;2022-12-18T15:18:00;32.22;;;10.98;;
583;SDS011;27024;54.068;12.116;2022-12-18T15:20:29;35.78;;;11.70;;
583;SDS011;27024;54.068;12.116;2022-12-18T15:22:58;35.83;;;10.82;;
583;SDS011;27024;54.068;12.116;2022-12-18T15:27:58;33.33;;;10.55;;
583;SDS011;27024;54.068;12.116;2022-12-18T15:30:25;35.08;;;11.93;;
583;SDS011;27024;54.068;12.116;2022-12-18T15:32:52;36.40;;;10.80;;
583;SDS011;27024;54.068;12.116;2022-12-18T15:35:55;35.47;;;11.63;;
583;SDS011;27024;54.068;12.116;2022-12-18T15:38:32;32.67;;;11.38;;
583;SDS011;27024;54.068;12.116;2022-12-18T15:40:58;37.40;;;11.63;;
583;SDS011;27024;54.068;12.116;2022-12-18T15:43:26;40.03;;;11.68;;
583;SDS011;27024;54.068;12.116;2022-12-18T15:46:08;36.25;;;10.93;;
583;SDS011;27024;54.068;12.116;2022-12-18T15:48:40;40.22;;;11.60;;
583;SDS011;27024;54.068;12.116;2022-12-18T15:54:14;33.58;;;10.05;;
583;SDS011;27024;54.068;12.116;2022-12-18T15:57:07;34.13;;;10.98;;
583;SDS011;27024;54.068;12.116;2022-12-18T15:59:53;29.33;;;11.05;;
583;SDS011;27024;54.068;12.116;2022-12-18T16:02:24;32.63;;;11.02;;
583;SDS011;27024;54.068;12.116;2022-12-18T16:04:52;36.15;;;10.30;;
583;SDS011;27024;54.068;12.116;2022-12-18T16:07:20;34.80;;;10.60;;
583;SDS011;27024;54.068;12.116;2022-12-18T16:09:51;32.65;;;10.07;;
583;SDS011;27024;54.068;12.116;2022-12-18T16:12:20;36.85;;;11.55;;
583;SDS011;27024;54.068;12.116;2022-12-18T16:14:48;34.17;;;9.75;;
583;SDS011;27024;54.068;12.116;2022-12-18T16:17:15;37.00;;;10.77;;
583;SDS011;27024;54.068;12.116;2022-12-18T16:19:42;30.83;;;9.40;;
583;SDS011;27024;54.068;12.116;2022-12-18T16:22:23;31.02;;;9.15;;
583;SDS011;27024;54.068;12.116;2022-12-18T16:24:52;34.28;;;10.55;;
583;SDS011;27024;54.068;12.116;2022-12-18T16:27:20;32.60;;;10.27;;
583;SDS011;27024;54.068;12.116;2022-12-18T16:29:49;33.97;;;9.65;;
583;SDS011;27024;54.068;12.116;2022-12-18T16:32:18;32.75;;;10.88;;
583;SDS011;27024;54.068;12.116;2022-12-18T16:34:46;34.50;;;11.27;;
583;SDS011;27024;54.068;12.116;2022-12-18T16:37:13;28.77;;;9.02;;
583;SDS011;27024;54.068;12.116;2022-12-18T16:39:41;36.00;;;9.40;;
583;SDS011;27024;54.068;12.116;2022-12-18T16:42:10;26.50;;;9.05;;
583;SDS011;27024;54.068;12.116;2022-12-18T16:47:07;30.30;;;10.10;;
583;SDS011;27024;54.068;12.116;2022-12-18T16:49:38;25.60;;;8.40;;
583;SDS011;27024;54.068;12.116;2022-12-18T16:52:05;32.03;;;9.20;;
583;SDS011;27024;54.068;12.116;2022-12-18T16:54:32;32.67;;;9.68;;
583;SDS011;27024;54.068;12.116;2022-12-18T16:57:02;31.67;;;9.63;;
583;SDS011;27024;54.068;12.116;2022-12-18T16:59:30;37.97;;;10.32;;
583;SDS011;27024;54.068;12.116;2022-12-18T17:01:58;35.50;;;10.38;;
583;SDS011;27024;54.068;12.116;2022-12-18T17:04:25;33.28;;;9.23;;
583;SDS011;27024;54.068;12.116;2022-12-18T17:06:51;30.08;;;9.60;;
583;SDS011;27024;54.068;12.116;2022-12-18T17:09:19;31.77;;;9.45;;
583;SDS011;27024;54.068;12.116;2022-12-18T17:11:53;34.80;;;10.75;;
583;SDS011;27024;54.068;12.116;2022-12-18T17:14:21;30.17;;;9.13;;
583;SDS011;27024;54.068;12.116;2022-12-18T17:16:51;31.15;;;9.38;;
583;SDS011;27024;54.068;12.116;2022-12-18T17:19:39;30.00;;;9.52;;
583;SDS011;27024;54.068;12.116;2022-12-18T17:22:05;30.75;;;9.88;;
583;SDS011;27024;54.068;12.116;2022-12-18T17:24:33;31.20;;;10.25;;
583;SDS011;27024;54.068;12.116;2022-12-18T17:27:02;33.85;;;10.43;;
583;SDS011;27024;54.068;12.116;2022-12-18T17:29:29;32.38;;;10.10;;
583;SDS011;27024;54.068;12.116;2022-12-18T17:31:58;32.30;;;10.70;;
583;SDS011;27024;54.068;12.116;2022-12-18T17:34:26;33.40;;;10.38;;
583;SDS011;27024;54.068;12.116;2022-12-18T17:36:53;42.35;;;12.40;;
583;SDS011;27024;54.068;12.116;2022-12-18T17:39:20;32.28;;;10.38;;
583;SDS011;27024;54.068;12.116;2022-12-18T17:41:47;36.92;;;10.98;;
583;SDS011;27024;54.068;12.116;2022-12-18T17:44:15;37.20;;;11.95;;
583;SDS011;27024;54.068;12.116;2022-12-18T17:46:43;42.13;;;11.65;;
583;SDS011;27024;54.068;12.116;2022-12-18T17:49:12;37.10;;;10.93;;
583;SDS011;27024;54.068;12.116;2022-12-18T17:51:40;36.45;;;12.15;;